createdAt,value
2023-04-26T00:00:24.300Z,21.6
2023-04-26T00:05:23.694Z,21.6
2023-04-26T00:10:15.601Z,21.6
2023-04-26T00:15:16.465Z,21.5
2023-04-26T00:20:27.751Z,21.5
2023-04-26T00:25:15.491Z,21.5
2023-04-26T00:30:17.962Z,21.5
2023-04-26T00:35:15.888Z,21.5
2023-04-26T00:40:20.034Z,21.5
2023-04-26T00:45:22.193Z,21.5
2023-04-26T00:50:21.925Z,21.5
2023-04-26T00:55:15.607Z,21.4
2023-04-26T01:00:22.841Z,21.4
2023-04-26T01:05:15.711Z,21.4
2023-04-26T01:10:15.553Z,21.4
2023-04-26T01:15:17.061Z,21.4
2023-04-26T01:20:15.966Z,21.4
2023-04-26T01:25:20.085Z,21.4
2023-04-26T01:30:17.944Z,21.4
2023-04-26T01:35:15.747Z,21.4
2023-04-26T01:40:17.873Z,21.4
2023-04-26T01:45:17.833Z,21.4
2023-04-26T01:50:21.605Z,21.4
2023-04-26T01:55:20.537Z,21.4
2023-04-26T02:00:22.691Z,21.4
2023-04-26T02:05:16.910Z,21.3
2023-04-26T02:10:21.685Z,21.3
2023-04-26T02:15:22.980Z,21.3
2023-04-26T02:20:17.835Z,21.4
2023-04-26T02:25:13.577Z,21.3
2023-04-26T02:30:18.968Z,21.3
2023-04-26T02:35:13.688Z,21.3
2023-04-26T02:40:18.597Z,21.3
2023-04-26T02:45:28.588Z,21.3
2023-04-26T02:50:14.585Z,21.3
2023-04-26T02:55:14.653Z,21.3
2023-04-26T03:00:14.551Z,21.3
2023-04-26T03:05:20.701Z,21.3
2023-04-26T03:10:14.489Z,21.3
2023-04-26T03:15:22.651Z,21.3
2023-04-26T03:20:18.840Z,21.3
2023-04-26T03:25:19.587Z,21.3
2023-04-26T03:30:22.860Z,21.2
2023-04-26T03:35:17.567Z,21.2
2023-04-26T03:40:14.450Z,21.2
2023-04-26T03:45:22.624Z,21.2
2023-04-26T03:50:20.410Z,21.2
2023-04-26T03:55:21.432Z,21.2
2023-04-26T04:00:16.295Z,21.1
2023-04-26T04:05:21.028Z,21.1
2023-04-26T04:10:20.187Z,21.1
2023-04-26T04:15:16.079Z,21.2
2023-04-26T04:20:16.150Z,21.2
2023-04-26T04:25:24.107Z,21.3
2023-04-26T04:30:16.097Z,21.3
2023-04-26T04:35:24.076Z,21.3
2023-04-26T04:40:14.269Z,21.3
2023-04-26T04:45:14.322Z,21.3
2023-04-26T04:50:18.241Z,21.4
2023-04-26T04:55:16.132Z,21.4
2023-04-26T05:00:28.069Z,21.4
2023-04-26T05:05:18.801Z,21.5
2023-04-26T05:10:19.746Z,21.5
2023-04-26T05:15:18.443Z,21.5
2023-04-26T05:20:14.266Z,21.5
2023-04-26T05:25:22.752Z,21.5
2023-04-26T05:30:19.899Z,21.5
2023-04-26T05:35:25.863Z,21.5
2023-04-26T05:40:17.714Z,21.5
2023-04-26T05:45:18.564Z,21.5
2023-04-26T05:50:14.503Z,21.5
2023-04-26T05:55:14.326Z,21.5
2023-04-26T06:00:16.333Z,21.5
2023-04-26T06:05:21.200Z,21.5
2023-04-26T06:10:17.692Z,21.4
2023-04-26T06:15:15.843Z,21.5
2023-04-26T06:20:15.806Z,21.5
2023-04-26T06:25:13.760Z,21.4
2023-04-26T06:30:13.608Z,21.5
2023-04-26T06:35:14.575Z,21.5
2023-04-26T06:40:16.334Z,21.5
2023-04-26T06:45:14.226Z,21.5
2023-04-26T06:50:16.130Z,21.5
2023-04-26T06:55:15.973Z,21.5
2023-04-26T07:00:28.179Z,21.5
2023-04-26T07:05:16.872Z,21.5
2023-04-26T07:10:15.885Z,21.5
2023-04-26T07:15:14.056Z,21.6
2023-04-26T07:20:15.910Z,21.6
2023-04-26T07:25:17.889Z,21.6
2023-04-26T07:30:21.771Z,21.6
2023-04-26T07:35:13.541Z,21.6
2023-04-26T07:40:26.587Z,21.6
2023-04-26T07:45:20.389Z,21.6
2023-04-26T07:50:16.245Z,21.6
2023-04-26T07:55:14.944Z,21.6
2023-04-26T08:00:13.756Z,21.6
2023-04-26T08:05:23.514Z,21.6
2023-04-26T08:10:13.876Z,21.6
2023-04-26T08:15:16.108Z,21.6
2023-04-26T08:20:15.976Z,21.6
2023-04-26T08:25:15.718Z,21.6
2023-04-26T08:30:17.701Z,21.6
2023-04-26T08:35:22.702Z,21.6
2023-04-26T08:40:26.658Z,21.6
2023-04-26T08:45:14.601Z,21.6
2023-04-26T08:50:16.257Z,21.6
2023-04-26T08:55:18.191Z,21.6
2023-04-26T09:00:14.042Z,21.6
2023-04-26T09:05:24.988Z,21.6
2023-04-26T09:10:13.673Z,21.5
2023-04-26T09:15:13.754Z,21.6
2023-04-26T09:20:15.914Z,21.6
2023-04-26T09:25:19.820Z,21.6
2023-04-26T09:30:17.945Z,21.6
2023-04-26T09:35:16.055Z,21.6
2023-04-26T09:40:24.009Z,21.6
2023-04-26T09:45:18.053Z,21.6
2023-04-26T09:50:18.051Z,21.6
2023-04-26T09:55:33.936Z,21.7
2023-04-26T10:00:19.942Z,21.7
2023-04-26T10:05:19.126Z,21.7
2023-04-26T10:10:14.801Z,21.7
2023-04-26T10:15:15.365Z,21.8
2023-04-26T10:20:23.601Z,21.8
2023-04-26T10:25:22.929Z,21.8
2023-04-26T10:30:15.840Z,21.8
2023-04-26T10:35:15.634Z,21.8
2023-04-26T10:40:16.570Z,21.9
2023-04-26T10:45:18.636Z,21.9
2023-04-26T10:50:23.722Z,21.9
2023-04-26T10:55:27.640Z,21.9
2023-04-26T11:00:18.599Z,21.9
2023-04-26T11:05:17.102Z,22
2023-04-26T11:10:22.015Z,22
2023-04-26T11:15:23.966Z,21.9
2023-04-26T11:20:17.794Z,21.9
2023-04-26T11:25:24.202Z,22
2023-04-26T11:30:16.044Z,22
2023-04-26T11:35:18.101Z,22
2023-04-26T11:40:14.272Z,22
2023-04-26T11:45:22.111Z,22
2023-04-26T11:50:14.010Z,22
2023-04-26T11:55:15.906Z,22
2023-04-26T12:00:16.037Z,22
2023-04-26T12:05:19.405Z,22
2023-04-26T12:10:22.524Z,22
2023-04-26T12:15:21.939Z,22.1
2023-04-26T12:20:17.805Z,22
2023-04-26T12:25:19.985Z,22.1
2023-04-26T12:30:13.830Z,22.1
2023-04-26T12:35:19.921Z,22.1
2023-04-26T12:40:15.775Z,22.1
2023-04-26T12:45:13.693Z,22.1
2023-04-26T12:50:15.582Z,22.1
2023-04-26T12:55:32.525Z,22.2
2023-04-26T13:00:18.348Z,22.2
2023-04-26T13:05:16.566Z,22.2
2023-04-26T13:10:18.744Z,22.2
2023-04-26T13:15:16.865Z,22.2
2023-04-26T13:20:15.847Z,22.2
2023-04-26T13:25:17.841Z,22.2
2023-04-26T13:30:17.694Z,22.2
2023-04-26T13:35:14.376Z,22.2
2023-04-26T13:40:24.501Z,22.2
2023-04-26T13:45:14.356Z,22.3
2023-04-26T13:50:18.174Z,22.3
2023-04-26T13:55:20.180Z,22.3
2023-04-26T14:00:29.965Z,22.3
2023-04-26T14:05:17.662Z,22.3
2023-04-26T14:10:16.147Z,22.3
2023-04-26T14:15:14.004Z,22.4
2023-04-26T14:20:17.930Z,22.3
2023-04-26T14:25:17.843Z,22.3
2023-04-26T14:30:20.057Z,22.3
2023-04-26T14:35:17.855Z,22.3
2023-04-26T14:40:15.696Z,22.3
2023-04-26T14:45:21.088Z,22.3
2023-04-26T14:50:20.770Z,22.3
2023-04-26T14:55:17.658Z,22.3
2023-04-26T15:00:22.868Z,22.3
2023-04-26T15:05:18.971Z,22.3
2023-04-26T15:10:22.028Z,22.3
2023-04-26T15:15:20.157Z,22.3
2023-04-26T15:20:14.275Z,22.4
2023-04-26T15:25:14.339Z,22.4
2023-04-26T15:30:16.735Z,22.4
2023-04-26T15:35:23.520Z,22.4
2023-04-26T15:40:14.697Z,22.4
2023-04-26T15:45:16.908Z,22.4
2023-04-26T15:50:15.997Z,22.4
2023-04-26T15:55:18.176Z,22.4
2023-04-26T16:00:14.590Z,22.4
2023-04-26T16:05:21.192Z,22.4
2023-04-26T16:10:18.188Z,22.4
2023-04-26T16:15:16.329Z,22.4
2023-04-26T16:20:18.440Z,22.4
2023-04-26T16:25:23.148Z,22.5
2023-04-26T16:30:14.066Z,22.4
2023-04-26T16:35:20.928Z,22.4
2023-04-26T16:40:15.737Z,22.5
2023-04-26T16:45:19.618Z,22.5
2023-04-26T16:50:16.483Z,22.5
2023-04-26T16:55:22.227Z,22.5
2023-04-26T17:00:16.249Z,22.5
2023-04-26T17:05:15.726Z,22.6
2023-04-26T17:10:17.785Z,22.5
2023-04-26T17:15:22.114Z,22.5
2023-04-26T17:20:14.097Z,22.6
2023-04-26T17:25:16.200Z,22.6
2023-04-26T17:30:16.322Z,22.5
2023-04-26T17:35:18.120Z,22.6
2023-04-26T17:40:16.529Z,22.6
2023-04-26T17:45:22.635Z,22.6
2023-04-26T17:50:17.532Z,22.6
2023-04-26T17:55:22.564Z,22.6
2023-04-26T18:00:18.472Z,22.7
2023-04-26T18:05:16.576Z,22.6
2023-04-26T18:10:18.730Z,22.6
2023-04-26T18:15:18.553Z,22.6
2023-04-26T18:20:22.535Z,22.6
2023-04-26T18:25:22.343Z,22.6
2023-04-26T18:30:20.305Z,22.6
2023-04-26T18:35:16.389Z,22.6
2023-04-26T18:40:20.177Z,22.6
2023-04-26T18:45:18.232Z,22.6
2023-04-26T18:50:16.074Z,22.5
2023-04-26T18:55:17.989Z,22.5
2023-04-26T19:00:17.870Z,22.5
2023-04-26T19:05:16.647Z,22.5
2023-04-26T19:10:14.508Z,22.6
2023-04-26T19:15:18.529Z,22.6
2023-04-26T19:20:20.715Z,22.6
2023-04-26T19:25:18.453Z,22.6
2023-04-26T19:30:24.426Z,22.6
2023-04-26T19:35:16.277Z,22.6
2023-04-26T19:40:18.067Z,22.6
2023-04-26T19:45:20.062Z,22.7
2023-04-26T19:50:15.789Z,22.7
2023-04-26T19:55:21.856Z,22.7
2023-04-26T20:00:17.673Z,22.7
2023-04-26T20:05:18.400Z,22.7
2023-04-26T20:10:16.305Z,22.7
2023-04-26T20:15:16.283Z,22.7
2023-04-26T20:20:18.082Z,22.6
2023-04-26T20:25:15.833Z,22.6
2023-04-26T20:30:18.306Z,22.6
2023-04-26T20:35:18.352Z,22.6
2023-04-26T20:40:16.149Z,22.6
2023-04-26T20:45:14.569Z,22.5
2023-04-26T20:50:16.561Z,22.5
2023-04-26T20:55:16.299Z,22.5
2023-04-26T21:00:16.263Z,22.5
2023-04-26T21:05:20.277Z,22.4
2023-04-26T21:10:20.162Z,22.4
2023-04-26T21:15:17.987Z,22.4
2023-04-26T21:20:22.152Z,22.3
2023-04-26T21:25:28.077Z,22.3
2023-04-26T21:30:22.186Z,22.3
2023-04-26T21:35:18.078Z,22.3
2023-04-26T21:40:15.896Z,22.3
2023-04-26T21:45:24.298Z,22.2
2023-04-26T21:50:16.074Z,22.2
2023-04-26T21:55:15.646Z,22.2
2023-04-26T22:00:28.611Z,22.2
2023-04-26T22:05:22.449Z,22.2
2023-04-26T22:10:14.449Z,22.1
2023-04-26T22:15:16.580Z,22.1
2023-04-26T22:20:14.639Z,22.1
2023-04-26T22:25:16.567Z,22.1
2023-04-26T22:30:47.581Z,22
2023-04-26T22:35:20.938Z,22
2023-04-26T22:40:29.725Z,22
2023-04-26T22:45:16.609Z,22
2023-04-26T22:50:22.589Z,22
2023-04-26T22:55:14.635Z,21.9
2023-04-26T23:00:29.092Z,21.9
2023-04-26T23:05:22.244Z,21.9
2023-04-26T23:10:24.524Z,21.9
2023-04-26T23:15:14.712Z,21.9
2023-04-26T23:20:17.420Z,21.8
2023-04-26T23:25:20.363Z,21.8
2023-04-26T23:30:14.299Z,21.8
2023-04-26T23:35:14.223Z,21.8
2023-04-26T23:40:16.443Z,21.8
2023-04-26T23:45:16.957Z,21.8
2023-04-26T23:50:19.887Z,21.7
2023-04-26T23:55:17.755Z,21.7
